sensor_id;sensor_type;location;lat;lon;timestamp;P1;durP1;ratioP1;P2;durP2;ratioP2
43650;SDS011;29247;50.944;5.382;2023-02-23T00:00:29;51.33;;;24.60;;
43650;SDS011;29247;50.944;5.382;2023-02-23T00:03:00;51.80;;;24.73;;
43650;SDS011;29247;50.944;5.382;2023-02-23T00:05:31;51.58;;;24.13;;
43650;SDS011;29247;50.944;5.382;2023-02-23T00:08:00;51.47;;;24.70;;
43650;SDS011;29247;50.944;5.382;2023-02-23T00:10:31;49.13;;;23.65;;
43650;SDS011;29247;50.944;5.382;2023-02-23T00:12:57;49.47;;;23.83;;
43650;SDS011;29247;50.944;5.382;2023-02-23T00:15:27;52.22;;;24.88;;
43650;SDS011;29247;50.944;5.382;2023-02-23T00:17:54;50.28;;;23.83;;
43650;SDS011;29247;50.944;5.382;2023-02-23T00:20:21;46.92;;;22.75;;
43650;SDS011;29247;50.944;5.382;2023-02-23T00:22:51;49.75;;;25.10;;
43650;SDS011;29247;50.944;5.382;2023-02-23T00:25:19;46.53;;;22.95;;
43650;SDS011;29247;50.944;5.382;2023-02-23T00:27:48;49.38;;;24.92;;
43650;SDS011;29247;50.944;5.382;2023-02-23T00:30:16;49.85;;;23.50;;
43650;SDS011;29247;50.944;5.382;2023-02-23T00:32:45;47.08;;;22.88;;
43650;SDS011;29247;50.944;5.382;2023-02-23T00:35:13;52.78;;;24.85;;
43650;SDS011;29247;50.944;5.382;2023-02-23T00:37:43;47.83;;;24.23;;
43650;SDS011;29247;50.944;5.382;2023-02-23T00:40:11;47.38;;;23.25;;
43650;SDS011;29247;50.944;5.382;2023-02-23T00:42:40;48.65;;;25.02;;
43650;SDS011;29247;50.944;5.382;2023-02-23T00:45:06;49.40;;;23.52;;
43650;SDS011;29247;50.944;5.382;2023-02-23T00:47:36;52.90;;;24.48;;
43650;SDS011;29247;50.944;5.382;2023-02-23T00:50:06;50.92;;;25.08;;
43650;SDS011;29247;50.944;5.382;2023-02-23T00:52:36;46.42;;;24.30;;
43650;SDS011;29247;50.944;5.382;2023-02-23T00:55:04;41.97;;;22.73;;
43650;SDS011;29247;50.944;5.382;2023-02-23T00:57:34;49.50;;;23.95;;
43650;SDS011;29247;50.944;5.382;2023-02-23T01:00:06;44.30;;;23.92;;
43650;SDS011;29247;50.944;5.382;2023-02-23T01:02:46;43.42;;;24.73;;
43650;SDS011;29247;50.944;5.382;2023-02-23T01:05:17;47.42;;;24.17;;
43650;SDS011;29247;50.944;5.382;2023-02-23T01:07:44;51.45;;;24.70;;
43650;SDS011;29247;50.944;5.382;2023-02-23T01:10:13;46.40;;;24.33;;
43650;SDS011;29247;50.944;5.382;2023-02-23T01:12:48;44.78;;;22.88;;
43650;SDS011;29247;50.944;5.382;2023-02-23T01:15:16;44.67;;;23.88;;
43650;SDS011;29247;50.944;5.382;2023-02-23T01:17:45;48.13;;;25.23;;
43650;SDS011;29247;50.944;5.382;2023-02-23T01:20:12;45.90;;;24.27;;
43650;SDS011;29247;50.944;5.382;2023-02-23T01:22:44;43.10;;;21.85;;
43650;SDS011;29247;50.944;5.382;2023-02-23T01:25:13;44.67;;;21.90;;
43650;SDS011;29247;50.944;5.382;2023-02-23T01:27:43;45.63;;;24.40;;
43650;SDS011;29247;50.944;5.382;2023-02-23T01:30:12;44.65;;;23.73;;
43650;SDS011;29247;50.944;5.382;2023-02-23T01:32:42;47.55;;;24.10;;
43650;SDS011;29247;50.944;5.382;2023-02-23T01:35:14;41.15;;;22.33;;
43650;SDS011;29247;50.944;5.382;2023-02-23T01:37:41;43.53;;;22.40;;
43650;SDS011;29247;50.944;5.382;2023-02-23T01:40:18;41.13;;;21.77;;
43650;SDS011;29247;50.944;5.382;2023-02-23T01:47:52;43.85;;;22.88;;
43650;SDS011;29247;50.944;5.382;2023-02-23T01:50:31;42.08;;;21.98;;
43650;SDS011;29247;50.944;5.382;2023-02-23T01:53:02;49.22;;;24.17;;
43650;SDS011;29247;50.944;5.382;2023-02-23T01:55:37;45.28;;;22.75;;
43650;SDS011;29247;50.944;5.382;2023-02-23T01:58:08;40.40;;;21.50;;
43650;SDS011;29247;50.944;5.382;2023-02-23T02:00:43;46.60;;;22.15;;
43650;SDS011;29247;50.944;5.382;2023-02-23T02:03:18;44.00;;;22.98;;
43650;SDS011;29247;50.944;5.382;2023-02-23T02:05:56;45.28;;;24.48;;
43650;SDS011;29247;50.944;5.382;2023-02-23T02:08:25;42.67;;;22.77;;
43650;SDS011;29247;50.944;5.382;2023-02-23T02:10:54;43.00;;;22.67;;
43650;SDS011;29247;50.944;5.382;2023-02-23T02:13:24;44.95;;;21.80;;
43650;SDS011;29247;50.944;5.382;2023-02-23T02:21:55;41.60;;;22.77;;
43650;SDS011;29247;50.944;5.382;2023-02-23T02:24:43;45.97;;;23.90;;
43650;SDS011;29247;50.944;5.382;2023-02-23T02:27:45;44.22;;;22.30;;
43650;SDS011;29247;50.944;5.382;2023-02-23T02:52:43;40.65;;;22.23;;
43650;SDS011;29247;50.944;5.382;2023-02-23T02:55:17;43.30;;;22.30;;
43650;SDS011;29247;50.944;5.382;2023-02-23T02:57:50;45.00;;;21.67;;
43650;SDS011;29247;50.944;5.382;2023-02-23T03:00:27;42.83;;;21.00;;
43650;SDS011;29247;50.944;5.382;2023-02-23T03:06:10;40.53;;;22.30;;
43650;SDS011;29247;50.944;5.382;2023-02-23T03:09:10;49.65;;;24.00;;
43650;SDS011;29247;50.944;5.382;2023-02-23T03:21:12;48.33;;;23.20;;
43650;SDS011;29247;50.944;5.382;2023-02-23T03:30:36;43.25;;;22.63;;
43650;SDS011;29247;50.944;5.382;2023-02-23T03:33:36;45.92;;;21.98;;
43650;SDS011;29247;50.944;5.382;2023-02-23T03:36:46;40.88;;;21.85;;
43650;SDS011;29247;50.944;5.382;2023-02-23T03:39:44;44.58;;;23.90;;
43650;SDS011;29247;50.944;5.382;2023-02-23T03:42:33;38.83;;;21.73;;
43650;SDS011;29247;50.944;5.382;2023-02-23T03:45:20;46.13;;;23.20;;
43650;SDS011;29247;50.944;5.382;2023-02-23T03:48:10;39.47;;;21.15;;
43650;SDS011;29247;50.944;5.382;2023-02-23T03:50:59;43.60;;;21.33;;
43650;SDS011;29247;50.944;5.382;2023-02-23T03:53:52;40.03;;;21.30;;
43650;SDS011;29247;50.944;5.382;2023-02-23T03:56:45;40.42;;;22.52;;
43650;SDS011;29247;50.944;5.382;2023-02-23T03:59:35;49.92;;;24.38;;
43650;SDS011;29247;50.944;5.382;2023-02-23T04:02:24;42.97;;;21.90;;
43650;SDS011;29247;50.944;5.382;2023-02-23T04:05:15;41.45;;;22.05;;
43650;SDS011;29247;50.944;5.382;2023-02-23T04:08:03;40.13;;;21.75;;
43650;SDS011;29247;50.944;5.382;2023-02-23T04:14:06;43.83;;;21.98;;
43650;SDS011;29247;50.944;5.382;2023-02-23T04:16:39;40.88;;;21.92;;
43650;SDS011;29247;50.944;5.382;2023-02-23T04:19:06;40.25;;;20.63;;
43650;SDS011;29247;50.944;5.382;2023-02-23T04:21:32;43.10;;;23.88;;
43650;SDS011;29247;50.944;5.382;2023-02-23T04:24:00;36.88;;;19.92;;
43650;SDS011;29247;50.944;5.382;2023-02-23T04:26:25;39.05;;;21.88;;
43650;SDS011;29247;50.944;5.382;2023-02-23T04:28:51;37.05;;;20.48;;
43650;SDS011;29247;50.944;5.382;2023-02-23T04:31:16;38.20;;;20.60;;
43650;SDS011;29247;50.944;5.382;2023-02-23T04:33:42;44.15;;;22.05;;
43650;SDS011;29247;50.944;5.382;2023-02-23T04:36:11;39.58;;;20.40;;
43650;SDS011;29247;50.944;5.382;2023-02-23T04:38:39;41.28;;;19.95;;
43650;SDS011;29247;50.944;5.382;2023-02-23T04:41:04;41.60;;;22.27;;
43650;SDS011;29247;50.944;5.382;2023-02-23T04:43:33;40.22;;;22.02;;
43650;SDS011;29247;50.944;5.382;2023-02-23T04:46:01;41.53;;;21.27;;
43650;SDS011;29247;50.944;5.382;2023-02-23T04:48:28;42.60;;;22.88;;
43650;SDS011;29247;50.944;5.382;2023-02-23T04:50:56;45.13;;;21.23;;
43650;SDS011;29247;50.944;5.382;2023-02-23T04:53:22;45.67;;;23.13;;
43650;SDS011;29247;50.944;5.382;2023-02-23T04:55:49;40.88;;;20.80;;
43650;SDS011;29247;50.944;5.382;2023-02-23T04:58:18;44.80;;;22.23;;
43650;SDS011;29247;50.944;5.382;2023-02-23T05:00:46;39.42;;;21.73;;
43650;SDS011;29247;50.944;5.382;2023-02-23T05:03:14;42.83;;;21.52;;
43650;SDS011;29247;50.944;5.382;2023-02-23T05:05:41;40.85;;;22.73;;
43650;SDS011;29247;50.944;5.382;2023-02-23T05:08:07;44.00;;;21.77;;
43650;SDS011;29247;50.944;5.382;2023-02-23T05:10:33;43.92;;;20.63;;
43650;SDS011;29247;50.944;5.382;2023-02-23T05:12:59;38.08;;;20.50;;
43650;SDS011;29247;50.944;5.382;2023-02-23T05:15:25;38.10;;;19.77;;
43650;SDS011;29247;50.944;5.382;2023-02-23T05:17:52;35.95;;;19.92;;
43650;SDS011;29247;50.944;5.382;2023-02-23T05:20:19;35.17;;;20.50;;
43650;SDS011;29247;50.944;5.382;2023-02-23T05:22:48;37.25;;;19.67;;
43650;SDS011;29247;50.944;5.382;2023-02-23T05:25:16;39.88;;;20.05;;
43650;SDS011;29247;50.944;5.382;2023-02-23T05:27:44;40.03;;;20.27;;
43650;SDS011;29247;50.944;5.382;2023-02-23T05:30:12;34.75;;;18.90;;
43650;SDS011;29247;50.944;5.382;2023-02-23T05:35:38;33.35;;;19.40;;
43650;SDS011;29247;50.944;5.382;2023-02-23T05:38:05;37.40;;;20.27;;
43650;SDS011;29247;50.944;5.382;2023-02-23T05:40:30;32.42;;;18.75;;
43650;SDS011;29247;50.944;5.382;2023-02-23T05:42:59;37.53;;;20.25;;
43650;SDS011;29247;50.944;5.382;2023-02-23T05:45:25;39.30;;;20.45;;
43650;SDS011;29247;50.944;5.382;2023-02-23T05:47:51;34.55;;;18.35;;
43650;SDS011;29247;50.944;5.382;2023-02-23T05:50:17;29.10;;;18.33;;
43650;SDS011;29247;50.944;5.382;2023-02-23T05:52:45;35.65;;;19.85;;
43650;SDS011;29247;50.944;5.382;2023-02-23T05:55:11;30.08;;;17.95;;
43650;SDS011;29247;50.944;5.382;2023-02-23T06:00:37;28.13;;;16.80;;
43650;SDS011;29247;50.944;5.382;2023-02-23T06:03:03;29.50;;;16.95;;
43650;SDS011;29247;50.944;5.382;2023-02-23T06:05:29;29.27;;;18.42;;
43650;SDS011;29247;50.944;5.382;2023-02-23T06:07:54;29.45;;;16.58;;
43650;SDS011;29247;50.944;5.382;2023-02-23T06:10:21;26.90;;;17.15;;
43650;SDS011;29247;50.944;5.382;2023-02-23T06:12:49;29.40;;;16.95;;
43650;SDS011;29247;50.944;5.382;2023-02-23T06:15:15;26.90;;;17.23;;
43650;SDS011;29247;50.944;5.382;2023-02-23T06:17:43;25.42;;;16.02;;
43650;SDS011;29247;50.944;5.382;2023-02-23T06:20:12;25.27;;;16.10;;
43650;SDS011;29247;50.944;5.382;2023-02-23T06:22:38;27.55;;;16.98;;
43650;SDS011;29247;50.944;5.382;2023-02-23T06:25:04;28.17;;;18.05;;
43650;SDS011;29247;50.944;5.382;2023-02-23T06:27:36;29.95;;;17.40;;
43650;SDS011;29247;50.944;5.382;2023-02-23T06:30:06;34.70;;;17.30;;
43650;SDS011;29247;50.944;5.382;2023-02-23T06:32:37;39.75;;;17.92;;
43650;SDS011;29247;50.944;5.382;2023-02-23T06:35:04;34.40;;;16.45;;
43650;SDS011;29247;50.944;5.382;2023-02-23T06:37:30;36.42;;;17.48;;
43650;SDS011;29247;50.944;5.382;2023-02-23T06:39:59;36.63;;;17.73;;
43650;SDS011;29247;50.944;5.382;2023-02-23T06:42:25;40.65;;;17.95;;
43650;SDS011;29247;50.944;5.382;2023-02-23T06:44:53;36.70;;;15.88;;
43650;SDS011;29247;50.944;5.382;2023-02-23T06:47:18;39.05;;;15.88;;
43650;SDS011;29247;50.944;5.382;2023-02-23T06:49:46;37.63;;;16.77;;
43650;SDS011;29247;50.944;5.382;2023-02-23T06:52:14;38.10;;;16.52;;
43650;SDS011;29247;50.944;5.382;2023-02-23T06:54:40;36.55;;;16.05;;
43650;SDS011;29247;50.944;5.382;2023-02-23T06:57:08;37.28;;;16.08;;
43650;SDS011;29247;50.944;5.382;2023-02-23T06:59:39;36.72;;;14.88;;
43650;SDS011;29247;50.944;5.382;2023-02-23T07:02:06;35.55;;;15.30;;
43650;SDS011;29247;50.944;5.382;2023-02-23T07:04:35;39.17;;;16.13;;
43650;SDS011;29247;50.944;5.382;2023-02-23T07:07:00;38.03;;;15.88;;
43650;SDS011;29247;50.944;5.382;2023-02-23T07:09:26;39.42;;;16.38;;
43650;SDS011;29247;50.944;5.382;2023-02-23T07:11:52;39.03;;;16.50;;
43650;SDS011;29247;50.944;5.382;2023-02-23T07:14:18;36.50;;;17.10;;
43650;SDS011;29247;50.944;5.382;2023-02-23T07:16:43;36.13;;;15.98;;
43650;SDS011;29247;50.944;5.382;2023-02-23T07:19:12;39.17;;;15.68;;
43650;SDS011;29247;50.944;5.382;2023-02-23T07:21:40;38.78;;;16.10;;
43650;SDS011;29247;50.944;5.382;2023-02-23T07:24:05;42.55;;;16.88;;
43650;SDS011;29247;50.944;5.382;2023-02-23T07:26:31;45.80;;;16.70;;
43650;SDS011;29247;50.944;5.382;2023-02-23T07:29:00;43.10;;;18.05;;
43650;SDS011;29247;50.944;5.382;2023-02-23T07:31:26;37.40;;;16.98;;
43650;SDS011;29247;50.944;5.382;2023-02-23T07:33:55;43.53;;;17.55;;
43650;SDS011;29247;50.944;5.382;2023-02-23T07:36:21;44.47;;;18.58;;
43650;SDS011;29247;50.944;5.382;2023-02-23T07:38:50;47.28;;;18.38;;
43650;SDS011;29247;50.944;5.382;2023-02-23T07:41:15;46.85;;;18.83;;
43650;SDS011;29247;50.944;5.382;2023-02-23T07:43:42;41.78;;;18.38;;
43650;SDS011;29247;50.944;5.382;2023-02-23T07:46:07;41.40;;;17.92;;
43650;SDS011;29247;50.944;5.382;2023-02-23T07:48:36;39.83;;;16.42;;
43650;SDS011;29247;50.944;5.382;2023-02-23T07:51:07;46.33;;;17.85;;
43650;SDS011;29247;50.944;5.382;2023-02-23T07:53:34;43.03;;;17.55;;
43650;SDS011;29247;50.944;5.382;2023-02-23T07:56:02;41.58;;;16.90;;
43650;SDS011;29247;50.944;5.382;2023-02-23T07:58:28;45.90;;;17.15;;
43650;SDS011;29247;50.944;5.382;2023-02-23T08:00:55;48.33;;;18.45;;
43650;SDS011;29247;50.944;5.382;2023-02-23T08:03:21;43.75;;;16.90;;
43650;SDS011;29247;50.944;5.382;2023-02-23T08:05:47;46.90;;;18.13;;
43650;SDS011;29247;50.944;5.382;2023-02-23T08:08:12;45.00;;;17.83;;
43650;SDS011;29247;50.944;5.382;2023-02-23T08:10:38;45.45;;;18.00;;
43650;SDS011;29247;50.944;5.382;2023-02-23T08:13:07;41.88;;;17.63;;
43650;SDS011;29247;50.944;5.382;2023-02-23T08:15:32;47.97;;;19.67;;
43650;SDS011;29247;50.944;5.382;2023-02-23T08:18:00;44.85;;;18.88;;
43650;SDS011;29247;50.944;5.382;2023-02-23T08:20:26;42.17;;;17.95;;
43650;SDS011;29247;50.944;5.382;2023-02-23T08:22:56;48.50;;;19.00;;
43650;SDS011;29247;50.944;5.382;2023-02-23T08:25:22;42.70;;;16.80;;
43650;SDS011;29247;50.944;5.382;2023-02-23T08:27:49;47.95;;;18.27;;
43650;SDS011;29247;50.944;5.382;2023-02-23T08:30:16;42.17;;;16.95;;
43650;SDS011;29247;50.944;5.382;2023-02-23T08:32:45;43.58;;;17.25;;
43650;SDS011;29247;50.944;5.382;2023-02-23T08:35:17;40.17;;;16.55;;
43650;SDS011;29247;50.944;5.382;2023-02-23T08:37:44;46.15;;;18.33;;
43650;SDS011;29247;50.944;5.382;2023-02-23T08:40:12;43.45;;;17.23;;
43650;SDS011;29247;50.944;5.382;2023-02-23T08:42:42;42.15;;;16.88;;
43650;SDS011;29247;50.944;5.382;2023-02-23T08:45:11;46.00;;;17.67;;
43650;SDS011;29247;50.944;5.382;2023-02-23T08:47:37;44.45;;;17.33;;
43650;SDS011;29247;50.944;5.382;2023-02-23T08:50:04;43.47;;;17.88;;
43650;SDS011;29247;50.944;5.382;2023-02-23T08:52:30;57.55;;;19.05;;
43650;SDS011;29247;50.944;5.382;2023-02-23T08:54:56;42.45;;;18.33;;
43650;SDS011;29247;50.944;5.382;2023-02-23T08:57:22;47.47;;;19.33;;
43650;SDS011;29247;50.944;5.382;2023-02-23T08:59:48;43.33;;;17.20;;
43650;SDS011;29247;50.944;5.382;2023-02-23T09:02:15;44.17;;;17.95;;
43650;SDS011;29247;50.944;5.382;2023-02-23T09:04:40;42.88;;;17.10;;
43650;SDS011;29247;50.944;5.382;2023-02-23T09:07:07;44.33;;;17.48;;
43650;SDS011;29247;50.944;5.382;2023-02-23T09:09:37;48.72;;;17.02;;
43650;SDS011;29247;50.944;5.382;2023-02-23T09:12:03;53.58;;;19.35;;
43650;SDS011;29247;50.944;5.382;2023-02-23T09:14:29;43.30;;;18.77;;
43650;SDS011;29247;50.944;5.382;2023-02-23T09:16:56;47.45;;;18.08;;
43650;SDS011;29247;50.944;5.382;2023-02-23T09:19:25;47.05;;;18.83;;
43650;SDS011;29247;50.944;5.382;2023-02-23T09:21:51;44.97;;;18.52;;
43650;SDS011;29247;50.944;5.382;2023-02-23T09:24:18;45.20;;;18.98;;
43650;SDS011;29247;50.944;5.382;2023-02-23T09:26:48;45.67;;;17.80;;
43650;SDS011;29247;50.944;5.382;2023-02-23T09:29:14;42.55;;;17.60;;
43650;SDS011;29247;50.944;5.382;2023-02-23T09:31:40;45.05;;;16.67;;
43650;SDS011;29247;50.944;5.382;2023-02-23T09:34:07;42.75;;;17.63;;
43650;SDS011;29247;50.944;5.382;2023-02-23T09:36:35;47.03;;;18.30;;
43650;SDS011;29247;50.944;5.382;2023-02-23T09:39:03;45.53;;;16.85;;
43650;SDS011;29247;50.944;5.382;2023-02-23T09:51:58;40.55;;;16.42;;
43650;SDS011;29247;50.944;5.382;2023-02-23T09:54:31;43.25;;;17.13;;
43650;SDS011;29247;50.944;5.382;2023-02-23T09:57:02;36.13;;;15.98;;
43650;SDS011;29247;50.944;5.382;2023-02-23T09:59:30;41.40;;;16.50;;
43650;SDS011;29247;50.944;5.382;2023-02-23T10:05:14;41.20;;;16.52;;
43650;SDS011;29247;50.944;5.382;2023-02-23T10:10:15;42.35;;;18.20;;
43650;SDS011;29247;50.944;5.382;2023-02-23T10:13:12;42.38;;;18.05;;
43650;SDS011;29247;50.944;5.382;2023-02-23T10:18:46;39.97;;;16.25;;
43650;SDS011;29247;50.944;5.382;2023-02-23T10:21:18;42.30;;;17.35;;
43650;SDS011;29247;50.944;5.382;2023-02-23T10:23:57;43.47;;;17.55;;
43650;SDS011;29247;50.944;5.382;2023-02-23T10:26:41;40.60;;;17.85;;
43650;SDS011;29247;50.944;5.382;2023-02-23T10:29:24;42.35;;;17.70;;
43650;SDS011;29247;50.944;5.382;2023-02-23T10:31:53;39.67;;;16.00;;
43650;SDS011;29247;50.944;5.382;2023-02-23T10:34:22;37.60;;;17.35;;
43650;SDS011;29247;50.944;5.382;2023-02-23T10:39:23;38.67;;;15.52;;
43650;SDS011;29247;50.944;5.382;2023-02-23T10:41:50;42.65;;;16.77;;
43650;SDS011;29247;50.944;5.382;2023-02-23T10:44:20;40.88;;;16.75;;
43650;SDS011;29247;50.944;5.382;2023-02-23T10:46:53;42.45;;;16.23;;
43650;SDS011;29247;50.944;5.382;2023-02-23T10:50:00;38.67;;;16.63;;
43650;SDS011;29247;50.944;5.382;2023-02-23T10:52:31;40.30;;;16.85;;
43650;SDS011;29247;50.944;5.382;2023-02-23T10:55:07;41.80;;;16.67;;
43650;SDS011;29247;50.944;5.382;2023-02-23T10:58:08;35.40;;;16.38;;
43650;SDS011;29247;50.944;5.382;2023-02-23T11:00:41;35.53;;;15.63;;
43650;SDS011;29247;50.944;5.382;2023-02-23T11:06:05;35.38;;;15.43;;
43650;SDS011;29247;50.944;5.382;2023-02-23T11:08:35;35.28;;;15.40;;
43650;SDS011;29247;50.944;5.382;2023-02-23T11:13:42;38.60;;;15.63;;
43650;SDS011;29247;50.944;5.382;2023-02-23T11:16:17;37.55;;;15.60;;
43650;SDS011;29247;50.944;5.382;2023-02-23T11:18:52;40.90;;;17.67;;
43650;SDS011;29247;50.944;5.382;2023-02-23T11:21:27;40.38;;;15.10;;
43650;SDS011;29247;50.944;5.382;2023-02-23T11:23:58;31.70;;;12.85;;
43650;SDS011;29247;50.944;5.382;2023-02-23T11:26:35;34.88;;;15.23;;
43650;SDS011;29247;50.944;5.382;2023-02-23T11:29:14;36.67;;;15.80;;
43650;SDS011;29247;50.944;5.382;2023-02-23T11:31:40;34.45;;;14.95;;
43650;SDS011;29247;50.944;5.382;2023-02-23T11:34:20;31.08;;;14.20;;
43650;SDS011;29247;50.944;5.382;2023-02-23T11:39:25;36.67;;;15.65;;
43650;SDS011;29247;50.944;5.382;2023-02-23T11:44:39;37.83;;;15.35;;
43650;SDS011;29247;50.944;5.382;2023-02-23T11:47:11;37.78;;;16.15;;
43650;SDS011;29247;50.944;5.382;2023-02-23T11:49:42;36.53;;;15.80;;
43650;SDS011;29247;50.944;5.382;2023-02-23T11:52:14;37.75;;;16.33;;
43650;SDS011;29247;50.944;5.382;2023-02-23T11:54:48;40.70;;;16.58;;
43650;SDS011;29247;50.944;5.382;2023-02-23T11:57:27;45.33;;;18.58;;
43650;SDS011;29247;50.944;5.382;2023-02-23T11:59:58;43.03;;;16.98;;
43650;SDS011;29247;50.944;5.382;2023-02-23T12:02:33;41.88;;;18.58;;
43650;SDS011;29247;50.944;5.382;2023-02-23T12:05:25;41.65;;;17.65;;
43650;SDS011;29247;50.944;5.382;2023-02-23T12:08:05;39.17;;;16.92;;
43650;SDS011;29247;50.944;5.382;2023-02-23T12:13:29;36.25;;;16.73;;
43650;SDS011;29247;50.944;5.382;2023-02-23T12:18:57;44.72;;;18.58;;
43650;SDS011;29247;50.944;5.382;2023-02-23T12:25:00;42.38;;;17.33;;
43650;SDS011;29247;50.944;5.382;2023-02-23T12:27:37;45.72;;;18.10;;
43650;SDS011;29247;50.944;5.382;2023-02-23T12:41:39;37.67;;;16.45;;
43650;SDS011;29247;50.944;5.382;2023-02-23T12:44:23;36.80;;;15.52;;
43650;SDS011;29247;50.944;5.382;2023-02-23T12:47:00;35.65;;;15.25;;
43650;SDS011;29247;50.944;5.382;2023-02-23T12:49:36;31.17;;;14.75;;
43650;SDS011;29247;50.944;5.382;2023-02-23T12:52:11;31.90;;;14.10;;
43650;SDS011;29247;50.944;5.382;2023-02-23T12:54:45;34.92;;;15.98;;
43650;SDS011;29247;50.944;5.382;2023-02-23T13:05:55;34.65;;;15.30;;
43650;SDS011;29247;50.944;5.382;2023-02-23T13:11:05;38.83;;;15.73;;
43650;SDS011;29247;50.944;5.382;2023-02-23T13:24:18;34.67;;;13.90;;
43650;SDS011;29247;50.944;5.382;2023-02-23T13:26:52;32.08;;;14.73;;
43650;SDS011;29247;50.944;5.382;2023-02-23T13:29:41;33.90;;;14.77;;
43650;SDS011;29247;50.944;5.382;2023-02-23T13:32:18;34.20;;;13.68;;
43650;SDS011;29247;50.944;5.382;2023-02-23T13:34:53;33.55;;;15.23;;
43650;SDS011;29247;50.944;5.382;2023-02-23T13:40:21;32.20;;;13.75;;
43650;SDS011;29247;50.944;5.382;2023-02-23T13:45:37;37.05;;;15.95;;
43650;SDS011;29247;50.944;5.382;2023-02-23T13:56:45;33.30;;;14.73;;
43650;SDS011;29247;50.944;5.382;2023-02-23T13:59:20;36.00;;;15.57;;
43650;SDS011;29247;50.944;5.382;2023-02-23T14:01:51;34.58;;;15.40;;
43650;SDS011;29247;50.944;5.382;2023-02-23T14:04:25;36.28;;;16.42;;
43650;SDS011;29247;50.944;5.382;2023-02-23T14:06:54;34.40;;;15.73;;
43650;SDS011;29247;50.944;5.382;2023-02-23T14:11:56;37.90;;;15.43;;
43650;SDS011;29247;50.944;5.382;2023-02-23T14:17:58;34.17;;;15.38;;
43650;SDS011;29247;50.944;5.382;2023-02-23T14:30:59;28.85;;;13.43;;
43650;SDS011;29247;50.944;5.382;2023-02-23T14:33:48;26.48;;;12.10;;
43650;SDS011;29247;50.944;5.382;2023-02-23T14:38:45;28.73;;;12.88;;
43650;SDS011;29247;50.944;5.382;2023-02-23T14:41:18;34.17;;;14.32;;
43650;SDS011;29247;50.944;5.382;2023-02-23T14:43:53;33.28;;;14.38;;
43650;SDS011;29247;50.944;5.382;2023-02-23T14:49:16;29.17;;;13.10;;
43650;SDS011;29247;50.944;5.382;2023-02-23T14:51:50;29.25;;;14.48;;
43650;SDS011;29247;50.944;5.382;2023-02-23T14:56:51;32.33;;;14.07;;
43650;SDS011;29247;50.944;5.382;2023-02-23T14:59:19;27.80;;;13.05;;
43650;SDS011;29247;50.944;5.382;2023-02-23T15:01:49;36.83;;;14.00;;
43650;SDS011;29247;50.944;5.382;2023-02-23T15:04:17;30.92;;;12.93;;
43650;SDS011;29247;50.944;5.382;2023-02-23T15:06:46;32.55;;;13.70;;
43650;SDS011;29247;50.944;5.382;2023-02-23T15:09:35;31.25;;;13.77;;
43650;SDS011;29247;50.944;5.382;2023-02-23T15:11:59;31.00;;;13.23;;
43650;SDS011;29247;50.944;5.382;2023-02-23T15:14:35;34.10;;;13.25;;
43650;SDS011;29247;50.944;5.382;2023-02-23T15:17:01;28.42;;;13.95;;
43650;SDS011;29247;50.944;5.382;2023-02-23T15:19:28;35.20;;;14.00;;
43650;SDS011;29247;50.944;5.382;2023-02-23T15:21:58;28.27;;;14.30;;
43650;SDS011;29247;50.944;5.382;2023-02-23T15:24:32;36.63;;;15.00;;
43650;SDS011;29247;50.944;5.382;2023-02-23T15:27:19;34.10;;;14.32;;
43650;SDS011;29247;50.944;5.382;2023-02-23T15:29:51;31.38;;;13.55;;
43650;SDS011;29247;50.944;5.382;2023-02-23T15:32:20;33.58;;;13.80;;
43650;SDS011;29247;50.944;5.382;2023-02-23T15:34:49;32.15;;;13.52;;
43650;SDS011;29247;50.944;5.382;2023-02-23T15:37:29;30.80;;;12.63;;
43650;SDS011;29247;50.944;5.382;2023-02-23T15:40:02;29.13;;;12.65;;
43650;SDS011;29247;50.944;5.382;2023-02-23T15:42:34;30.55;;;13.25;;
43650;SDS011;29247;50.944;5.382;2023-02-23T15:45:04;28.67;;;12.00;;
43650;SDS011;29247;50.944;5.382;2023-02-23T15:47:56;32.47;;;12.85;;
43650;SDS011;29247;50.944;5.382;2023-02-23T15:50:26;32.08;;;14.20;;
43650;SDS011;29247;50.944;5.382;2023-02-23T15:53:04;29.10;;;12.65;;
43650;SDS011;29247;50.944;5.382;2023-02-23T15:55:38;25.58;;;12.25;;
43650;SDS011;29247;50.944;5.382;2023-02-23T15:58:23;29.88;;;11.75;;
43650;SDS011;29247;50.944;5.382;2023-02-23T16:00:56;25.98;;;11.45;;
43650;SDS011;29247;50.944;5.382;2023-02-23T16:03:28;23.23;;;10.35;;
43650;SDS011;29247;50.944;5.382;2023-02-23T16:06:00;20.13;;;9.85;;
43650;SDS011;29247;50.944;5.382;2023-02-23T16:08:33;29.25;;;10.70;;
43650;SDS011;29247;50.944;5.382;2023-02-23T16:11:01;26.40;;;10.45;;
43650;SDS011;29247;50.944;5.382;2023-02-23T16:13:35;23.90;;;10.30;;
43650;SDS011;29247;50.944;5.382;2023-02-23T16:16:04;24.25;;;10.90;;
43650;SDS011;29247;50.944;5.382;2023-02-23T16:18:41;25.20;;;10.77;;
43650;SDS011;29247;50.944;5.382;2023-02-23T16:21:10;23.33;;;9.45;;
43650;SDS011;29247;50.944;5.382;2023-02-23T16:23:43;24.20;;;9.35;;
43650;SDS011;29247;50.944;5.382;2023-02-23T16:26:45;19.50;;;8.63;;
43650;SDS011;29247;50.944;5.382;2023-02-23T16:29:19;18.92;;;8.50;;
43650;SDS011;29247;50.944;5.382;2023-02-23T16:31:58;17.55;;;8.60;;
43650;SDS011;29247;50.944;5.382;2023-02-23T16:34:33;19.83;;;9.00;;
43650;SDS011;29247;50.944;5.382;2023-02-23T16:37:20;18.05;;;8.38;;
43650;SDS011;29247;50.944;5.382;2023-02-23T16:39:49;17.63;;;7.82;;
43650;SDS011;29247;50.944;5.382;2023-02-23T16:44:54;16.70;;;7.75;;
43650;SDS011;29247;50.944;5.382;2023-02-23T16:49:49;17.23;;;8.82;;
43650;SDS011;29247;50.944;5.382;2023-02-23T16:52:19;18.45;;;8.35;;
43650;SDS011;29247;50.944;5.382;2023-02-23T16:54:49;18.15;;;7.70;;
43650;SDS011;29247;50.944;5.382;2023-02-23T16:57:28;18.15;;;7.68;;
43650;SDS011;29247;50.944;5.382;2023-02-23T17:00:01;16.95;;;6.63;;
43650;SDS011;29247;50.944;5.382;2023-02-23T17:02:38;15.38;;;7.32;;
43650;SDS011;29247;50.944;5.382;2023-02-23T17:05:09;15.00;;;6.88;;
43650;SDS011;29247;50.944;5.382;2023-02-23T17:07:37;11.50;;;5.72;;
43650;SDS011;29247;50.944;5.382;2023-02-23T17:10:07;14.65;;;6.32;;
43650;SDS011;29247;50.944;5.382;2023-02-23T17:12:33;13.77;;;5.70;;
43650;SDS011;29247;50.944;5.382;2023-02-23T17:14:59;14.85;;;5.90;;
43650;SDS011;29247;50.944;5.382;2023-02-23T17:17:28;13.15;;;6.22;;
43650;SDS011;29247;50.944;5.382;2023-02-23T17:19:57;12.52;;;6.03;;
43650;SDS011;29247;50.944;5.382;2023-02-23T17:22:25;11.32;;;4.88;;
43650;SDS011;29247;50.944;5.382;2023-02-23T17:24:51;10.82;;;5.65;;
43650;SDS011;29247;50.944;5.382;2023-02-23T17:27:20;10.40;;;5.13;;
43650;SDS011;29247;50.944;5.382;2023-02-23T17:29:50;9.18;;;4.68;;
43650;SDS011;29247;50.944;5.382;2023-02-23T17:32:18;11.52;;;5.35;;
43650;SDS011;29247;50.944;5.382;2023-02-23T17:34:48;14.50;;;6.28;;
43650;SDS011;29247;50.944;5.382;2023-02-23T17:37:16;10.68;;;5.53;;
43650;SDS011;29247;50.944;5.382;2023-02-23T17:39:44;14.05;;;5.15;;
43650;SDS011;29247;50.944;5.382;2023-02-23T17:42:13;13.30;;;5.43;;
43650;SDS011;29247;50.944;5.382;2023-02-23T17:44:40;14.88;;;5.80;;
43650;SDS011;29247;50.944;5.382;2023-02-23T17:47:05;14.02;;;6.07;;
43650;SDS011;29247;50.944;5.382;2023-02-23T17:49:32;11.95;;;4.97;;